Historyczne dane pomiarowe

Dodano dane terminowe – wersja testowa.

Dane z okresu 1951-2019

Wersja bazy: 1.34 [2019-03-16, lista zmian], aktualizacja planowana na 2019-04-15

Dane meteo z obszaru Polski uzyskane na podstawie danych udostępnionych przez Instytut Meteorologii i Gospodarki Wodnej – Państwowy Instytut Badawczy.

 

Wybierz Datę:    

       

TemperaturaWilgotnośćWiatrCiśnienieOpadyŚniegCzas trwania zjawisk
 Stacja t tx tn tng RH VA  wxwx mslp ppp RRR   cm mm wxwxwxwxwxwxwx
1991-03-15 8.3 16.4 2.3 -1.5-- 5.0 4.3---- 4.8------------
1991-03-14 6.3 15.4 0.4 -0.5-- 4.3 1.7---- 0.0------------
1991-03-13 5.3 10.4 0.4 -1.9-- 5.7 1.3---- 0.0------------
1991-03-12 6.6 13.5 2.1 0.5-- 3.7 2.0---- 0.0------------
1991-03-11 3.8 5.9 2.5 -1.9-- 8.0 1.7---- 0.0------------
1991-03-10 4.6 10.5 0.3 -1.5-- 5.3 3.3---- 0.0------------
1991-03-09 6.6 12.9 2.3 0.5-- 4.7 8.0---- 0.0------------
1991-03-08 4.2 8.4 1.1 -0.5-- 5.7 8.0---- 0.0------------
1991-03-07 2.4 7.1 -1.1 -2.9-- 3.7 7.7---- 0.0------------
1991-03-06 1.7 6.4 -0.6 -1.9-- 3.7 6.7---- 0.0------------
1991-03-05 3.0 8.4 -1.1 -2.9-- 4.7 2.3---- 0.0------------
1991-03-04 3.0 8.5 0.4 -2.9-- 5.0 2.7---- 0.0------------
1991-03-03 2.1 5.9 -1.1 -2.1-- 8.0 3.7---- 0.0------------
1991-03-02 1.0 4.5 -1.6 -2.9-- 3.7 3.3---- 0.0------------
1991-03-01 0.7 3.4 -1.7 -3.9-- 8.0 3.0---- 0.0------------
1991-02-28 0.0 1.4 -1.1 -1.5-- 8.0 1.7---- 0.0------------
1991-02-27 0.0 1.1 -1.1 -2.4-- 7.7 8.7---- 0.0------------
1991-02-26 2.2 7.5 0.7 -1.5-- 5.7 6.7---- 0.0------------
1991-02-25 4.4 10.9 -2.1 -2.9-- 7.7 3.0---- 0.0------------
1991-02-24 5.1 8.9 3.1 0.5-- 5.3 2.7---- 0.0------------
1991-02-23 2.8 6.7 -0.6 -1.9-- 6.3 5.3---- 0.6-- 2---------
1991-02-22 1.3 6.4 -1.7 -5.9-- 3.3 1.3---- 0.0-- 4---------
1991-02-21 0.5 6.5 -4.6 -8.4-- 3.0 1.3---- 0.0-- 5---------
1991-02-20 -1.1 3.4 -5.1 -8.8-- 5.7 1.0---- 0.0-- 8---------
1991-02-19 -4.7 1.1-10.9-14.3-- 1.0 3.0---- 0.0-- 8---------
1991-02-18 -1.1 0.7 -3.6 -6.4-- 3.3 7.0---- 0.1-- 14---------
1991-02-17 -3.9 -1.6 -7.3-14.8-- 7.7 6.7---- 0.4-- 12---------
1991-02-16 -4.7 -1.5 -7.3 -8.1-- 7.7 2.3---- 0.3-- 7---------
1991-02-15 -5.1 -2.6 -7.1 -6.9-- 7.7 5.3---- 0.1-- 7---------
1991-02-14 -5.2 -4.1 -6.1 -6.9-- 8.0 11.3---- 0.2-- 6---------
1991-02-13 -4.7 -3.6 -5.6 -6.4-- 8.0 5.3---- 0.8-- 5---------
1991-02-12 -6.9 -0.6-13.1-14.8-- 6.0 1.7---- 0.0-- 5---------
1991-02-11 -1.2 1.5 -3.6 -5.9-- 8.0 3.7---- 0.0-- 5---------
1991-02-10 -3.3 0.7 -9.1-16.8-- 8.0 5.7---- 1.2-- 10---------
1991-02-09 -2.3 -0.7 -5.1 -4.9-- 8.0 1.7---- 0.6-- 7---------
1991-02-08 -5.8 -2.6 -9.4-10.8-- 7.3 8.7---- 2.5------------
1991-02-07 -7.8 -4.1-11.6-13.3-- 6.0 6.7---- 0.0------------
1991-02-06 -9.2 -5.9-14.0-14.8-- 7.7 6.0---- 0.1------------
1991-02-05-12.3 -8.6-14.2-15.8-- 6.0 4.7---- 0.0------------
1991-02-04 -7.4 -4.3 -9.1-12.8-- 5.0 4.7---- 0.1------------
1991-02-03 -9.2 -4.6-15.2-17.8-- 3.7 2.0---- 0.0-- 2---------
1991-02-02-12.1 -7.4-17.0-19.3-- 0.7 3.3---- 0.0-- 2---------
1991-02-01-14.4-10.1-18.7-19.8-- 0.0 4.0---- 0.0-- 2---------
1991-01-31-12.6 -9.5-15.5-18.3-- 0.0 1.3---- 0.0-- 2---------
1991-01-30 -5.4 -0.6-11.1-14.3-- 2.0 3.7---- 0.0-- 2---------
1991-01-29 -0.2 1.5 -0.9 -2.4-- 6.0 6.7---- 1.0------------
1991-01-28 -0.3 0.9 -1.3 -1.5-- 8.0 7.3---- 0.0------------
1991-01-27 0.9 1.5 -0.1 -1.0-- 8.0 3.0---- 0.5------------
1991-01-26 1.2 1.6 0.1 -0.5-- 8.0 5.3---- 0.4------------
1991-01-25 -0.2 1.1 -1.3 -1.5-- 8.0 7.3---- 0.0------------
1991-01-24 0.3 1.6 -0.6 -1.0-- 8.0 8.0---- 0.8------------
1991-01-23 0.4 1.3 -0.1 -0.5-- 7.7 4.0---- 0.0------------
1991-01-22 0.3 0.9 -0.6 -1.0-- 8.0 1.3---- 0.0------------
1991-01-21 -2.8 0.3 -7.3-11.8-- 7.7 4.0---- 0.0------------
1991-01-20 -5.7 -0.6 -9.1-12.0-- 0.3 1.0---- 0.0------------
1991-01-19 -5.9 1.9-10.5-13.3-- 0.3 1.0---- 0.0------------
1991-01-18 -5.9 0.9-10.5-13.3-- 0.0 1.3---- 0.0------------
1991-01-17 -6.4 -1.6-10.3-13.3-- 0.0 1.3---- 0.0------------
1991-01-16 -5.1 -0.4 -8.9-12.3-- 0.3 1.3---- 0.0------------
1991-01-15 -3.8 -0.7 -7.1-11.3-- 5.7 2.0---- 0.0------------
390.9 ms

 

Źródłem pochodzenia danych jest Instytut Meteorologii i Gospodarki Wodnej – Państwowy Instytut Badawczy. Dane Instytutu Meteorologii i Gospodarki Wodnej – Państwowego Instytutu Badawczego zostały przetworzone.

Dane źródłowe można odnaleźć na stronie https://dane.imgw.pl